Time;durP1;ratioP1;P1;durP2;ratioP2;P2;SDS_P1;SDS_P2;PMS_P1;PMS_P2;Temp;Humidity;BMP_temperature;BMP_pressure;BME280_temperature;BME280_humidity;BME280_pressure;Samples;Min_cycle;Max_cycle;Signal;HPM_P1;HPM_P2
2021/06/15 00:01:05;;;;;;;6.70;4.53;;;;;;;;;;5015906;28;20128;-75
2021/06/15 00:03:30;;;;;;;6.75;4.70;;;;;;;;;;5015287;28;20116;-75
2021/06/15 00:05:55;;;;;;;8.32;5.35;;;;;;;;;;5031838;28;20029;-75
2021/06/15 00:08:21;;;;;;;6.97;4.35;;;;;;;;;;5032859;28;20030;-75
2021/06/15 00:10:47;;;;;;;6.35;4.40;;;;;;;;;;5015957;28;20025;-75
2021/06/15 00:13:12;;;;;;;7.68;4.18;;;;;;;;;;5015592;28;20025;-75
2021/06/15 00:15:40;;;;;;;6.40;4.82;;;;;;;;;;5015779;28;20029;-75
2021/06/15 00:18:05;;;;;;;7.68;4.57;;;;;;;;;;5016140;28;20129;-75
2021/06/15 00:20:31;;;;;;;6.68;4.38;;;;;;;;;;5014790;28;20112;-74
2021/06/15 00:22:56;;;;;;;5.72;4.15;;;;;;;;;;5015019;28;20041;-75
2021/06/15 00:25:22;;;;;;;7.65;4.15;;;;;;;;;;5015335;28;20033;-75
2021/06/15 00:27:48;;;;;;;5.88;4.53;;;;;;;;;;5012894;28;20446;-74
2021/06/15 00:30:15;;;;;;;6.25;4.13;;;;;;;;;;5015558;28;20033;-74
2021/06/15 00:32:40;;;;;;;7.13;4.63;;;;;;;;;;5015531;28;20061;-74
2021/06/15 00:35:06;;;;;;;6.57;4.65;;;;;;;;;;4999257;28;20082;-74
2021/06/15 00:37:32;;;;;;;7.75;5.60;;;;;;;;;;4999039;28;20033;-74
2021/06/15 00:39:57;;;;;;;6.10;4.05;;;;;;;;;;5014853;28;20033;-74
2021/06/15 00:42:23;;;;;;;6.28;3.97;;;;;;;;;;5031480;28;20044;-74
2021/06/15 00:44:49;;;;;;;7.38;4.05;;;;;;;;;;5014853;28;20495;-74
2021/06/15 00:47:14;;;;;;;5.57;3.70;;;;;;;;;;4998875;28;20038;-75
2021/06/15 00:49:40;;;;;;;6.50;4.22;;;;;;;;;;5015158;28;20040;-74
2021/06/15 00:52:06;;;;;;;6.63;4.10;;;;;;;;;;4999348;28;20041;-74
2021/06/15 00:54:31;;;;;;;6.63;4.50;;;;;;;;;;5014918;28;20476;-74
2021/06/15 00:56:57;;;;;;;5.28;3.60;;;;;;;;;;5014070;28;20475;-74
2021/06/15 00:59:22;;;;;;;7.22;4.20;;;;;;;;;;5013992;28;20025;-75
2021/06/15 01:01:48;;;;;;;5.78;3.72;;;;;;;;;;5014796;28;20045;-75
2021/06/15 01:04:13;;;;;;;5.30;3.53;;;;;;;;;;5014742;28;20049;-74
2021/06/15 01:06:54;;;;;;;4.93;3.38;;;;;;;;;;5014567;28;20124;-74
2021/06/15 01:09:33;;;;;;;5.90;3.72;;;;;;;;;;5047357;28;20064;-74
2021/06/15 01:12:10;;;;;;;5.93;3.93;;;;;;;;;;5031174;28;20476;-74
2021/06/15 01:14:54;;;;;;;4.68;3.83;;;;;;;;;;5030892;28;20041;-74
2021/06/15 01:17:23;;;;;;;5.93;3.53;;;;;;;;;;5032741;28;20487;-74
2021/06/15 01:20:01;;;;;;;5.35;3.15;;;;;;;;;;5010540;28;20084;-74
2021/06/15 01:22:35;;;;;;;5.43;4.03;;;;;;;;;;5027923;28;20026;-75
2021/06/15 01:25:18;;;;;;;5.72;3.97;;;;;;;;;;5030309;28;20049;-74
2021/06/15 01:28:22;;;;;;;7.50;3.88;;;;;;;;;;5030095;28;20029;-75
2021/06/15 01:30:50;;;;;;;5.55;3.65;;;;;;;;;;4953203;28;20042;-75
2021/06/15 01:33:15;;;;;;;7.50;3.55;;;;;;;;;;4971835;28;20034;-75
2021/06/15 01:35:41;;;;;;;5.03;3.42;;;;;;;;;;5013281;28;20051;-75
2021/06/15 01:38:11;;;;;;;4.07;3.20;;;;;;;;;;5017787;28;20037;-75
2021/06/15 01:40:43;;;;;;;6.15;3.55;;;;;;;;;;5015490;28;20029;-75
2021/06/15 01:43:21;;;;;;;7.63;4.28;;;;;;;;;;5017715;28;20034;-75
2021/06/15 01:45:47;;;;;;;5.43;3.00;;;;;;;;;;5023724;28;20390;-75
2021/06/15 01:48:28;;;;;;;7.28;3.10;;;;;;;;;;5014422;28;20043;-75
2021/06/15 01:50:55;;;;;;;7.72;4.07;;;;;;;;;;5031784;28;20037;-75
2021/06/15 01:53:20;;;;;;;7.13;3.55;;;;;;;;;;5014484;28;20030;-75
2021/06/15 01:55:48;;;;;;;6.03;3.15;;;;;;;;;;5010440;28;20026;-75
2021/06/15 01:58:14;;;;;;;8.07;3.33;;;;;;;;;;5004993;28;20041;-75
2021/06/15 02:00:39;;;;;;;6.50;3.53;;;;;;;;;;5013132;28;20407;-75
2021/06/15 02:03:05;;;;;;;6.97;3.78;;;;;;;;;;5013912;28;20048;-75
2021/06/15 02:06:06;;;;;;;5.13;3.30;;;;;;;;;;5014114;28;20017;-75
2021/06/15 02:08:36;;;;;;;5.07;3.55;;;;;;;;;;4973066;28;20512;-75
2021/06/15 02:11:02;;;;;;;4.15;2.70;;;;;;;;;;4987069;28;20046;-75
2021/06/15 02:13:30;;;;;;;4.90;3.35;;;;;;;;;;4994217;28;20497;-75
2021/06/15 02:15:56;;;;;;;4.93;2.92;;;;;;;;;;4969106;28;20510;-75
2021/06/15 02:18:22;;;;;;;4.60;3.17;;;;;;;;;;4994345;28;20088;-75
2021/06/15 02:20:48;;;;;;;5.30;3.22;;;;;;;;;;4994637;28;20042;-75
2021/06/15 02:23:18;;;;;;;4.93;3.25;;;;;;;;;;4994487;28;20033;-75
2021/06/15 02:25:43;;;;;;;7.15;3.50;;;;;;;;;;4994280;28;20505;-75
2021/06/15 02:28:09;;;;;;;5.97;3.35;;;;;;;;;;4997913;28;20045;-75
2021/06/15 02:30:34;;;;;;;6.93;3.67;;;;;;;;;;4998476;28;20056;-75
2021/06/15 02:33:05;;;;;;;6.15;3.25;;;;;;;;;;5010521;28;20051;-75
2021/06/15 02:35:30;;;;;;;4.88;3.13;;;;;;;;;;5054570;28;20029;-75
2021/06/15 02:38:07;;;;;;;5.00;2.97;;;;;;;;;;5022896;28;20083;-75
2021/06/15 02:40:33;;;;;;;6.28;3.88;;;;;;;;;;5000906;28;20064;-75
2021/06/15 02:42:58;;;;;;;5.85;3.35;;;;;;;;;;5016304;28;20491;-75
2021/06/15 02:45:28;;;;;;;5.35;3.63;;;;;;;;;;5016319;28;20038;-75
2021/06/15 02:47:54;;;;;;;5.90;3.53;;;;;;;;;;5018107;28;20060;-75
2021/06/15 02:50:22;;;;;;;6.03;3.63;;;;;;;;;;5003810;28;20029;-75
2021/06/15 02:53:03;;;;;;;4.07;2.95;;;;;;;;;;5016642;28;20034;-75
2021/06/15 02:55:35;;;;;;;6.40;3.65;;;;;;;;;;5034278;28;20033;-75
2021/06/15 02:58:01;;;;;;;7.15;3.45;;;;;;;;;;5032994;28;20041;-75
2021/06/15 03:00:26;;;;;;;5.60;3.38;;;;;;;;;;5001287;28;20039;-75
2021/06/15 03:02:52;;;;;;;5.38;3.47;;;;;;;;;;4997431;28;20034;-75
2021/06/15 03:05:17;;;;;;;4.18;2.95;;;;;;;;;;5013813;28;20033;-75
2021/06/15 03:07:49;;;;;;;5.65;3.33;;;;;;;;;;5013565;28;20029;-75
2021/06/15 03:10:15;;;;;;;3.88;2.83;;;;;;;;;;5015850;28;20026;-75
2021/06/15 03:13:14;;;;;;;5.50;3.50;;;;;;;;;;5000211;28;20029;-75
2021/06/15 03:15:50;;;;;;;3.03;2.47;;;;;;;;;;5021893;28;20073;-75
2021/06/15 03:18:31;;;;;;;4.47;3.70;;;;;;;;;;5017806;28;20040;-75
2021/06/15 03:20:58;;;;;;;6.88;2.97;;;;;;;;;;5016776;28;20030;-75
2021/06/15 03:23:46;;;;;;;4.85;3.03;;;;;;;;;;5016757;28;20033;-75
2021/06/15 03:26:20;;;;;;;4.35;3.05;;;;;;;;;;5017380;28;20108;-75
2021/06/15 03:28:49;;;;;;;4.75;2.97;;;;;;;;;;5016637;28;20048;-75
2021/06/15 03:31:16;;;;;;;4.65;2.95;;;;;;;;;;5016935;28;20436;-75
2021/06/15 03:33:41;;;;;;;3.97;3.20;;;;;;;;;;5028462;28;20024;-76
2021/06/15 03:36:07;;;;;;;8.35;3.53;;;;;;;;;;5036452;28;20490;-76
2021/06/15 03:38:34;;;;;;;5.50;3.10;;;;;;;;;;4983986;28;20103;-76
2021/06/15 03:41:00;;;;;;;4.68;3.38;;;;;;;;;;5016373;28;20406;-76
2021/06/15 03:43:26;;;;;;;5.95;3.25;;;;;;;;;;5016472;28;20029;-76
2021/06/15 03:46:02;;;;;;;5.32;3.35;;;;;;;;;;5016057;28;20112;-75
2021/06/15 03:48:29;;;;;;;7.35;4.13;;;;;;;;;;5016006;28;20510;-75
2021/06/15 03:50:56;;;;;;;3.80;3.00;;;;;;;;;;5015902;28;20895;-75
2021/06/15 03:53:22;;;;;;;4.90;3.78;;;;;;;;;;5016617;28;20108;-75
2021/06/15 03:55:47;;;;;;;5.55;3.05;;;;;;;;;;5016478;28;20044;-75
2021/06/15 03:58:13;;;;;;;4.95;3.22;;;;;;;;;;4998996;28;20112;-75
2021/06/15 04:00:48;;;;;;;5.30;3.13;;;;;;;;;;4999985;28;20045;-75
2021/06/15 04:03:13;;;;;;;5.40;3.45;;;;;;;;;;5013966;28;20101;-75
2021/06/15 04:05:38;;;;;;;6.40;3.70;;;;;;;;;;5014971;28;20048;-75
2021/06/15 04:08:05;;;;;;;6.88;3.65;;;;;;;;;;5015942;28;20094;-75
2021/06/15 04:10:31;;;;;;;6.68;4.15;;;;;;;;;;5015550;28;20510;-75
2021/06/15 04:12:58;;;;;;;5.85;3.53;;;;;;;;;;5016109;28;20033;-74
2021/06/15 04:15:25;;;;;;;8.32;3.35;;;;;;;;;;4999405;28;20402;-74
2021/06/15 04:17:51;;;;;;;6.63;3.47;;;;;;;;;;5000246;28;20095;-75
2021/06/15 04:20:29;;;;;;;7.05;3.55;;;;;;;;;;5015847;28;20040;-75
2021/06/15 04:22:54;;;;;;;5.75;3.45;;;;;;;;;;5016475;28;20064;-75
2021/06/15 04:25:26;;;;;;;7.57;3.65;;;;;;;;;;4999612;28;20546;-75
2021/06/15 04:27:51;;;;;;;6.90;4.03;;;;;;;;;;5015886;28;20105;-75
2021/06/15 04:30:19;;;;;;;5.18;3.40;;;;;;;;;;5015695;28;20112;-75
2021/06/15 04:32:58;;;;;;;7.13;3.60;;;;;;;;;;5012069;28;20038;-75
2021/06/15 04:35:47;;;;;;;4.63;3.22;;;;;;;;;;5022793;28;20095;-75
2021/06/15 04:38:13;;;;;;;4.18;2.95;;;;;;;;;;5031730;28;20030;-75
2021/06/15 04:40:52;;;;;;;6.93;3.00;;;;;;;;;;5032137;28;20041;-75
2021/06/15 04:43:21;;;;;;;4.78;3.47;;;;;;;;;;5016563;28;20519;-75
2021/06/15 04:45:47;;;;;;;7.00;3.42;;;;;;;;;;5031705;28;20041;-75
2021/06/15 04:48:21;;;;;;;5.20;3.33;;;;;;;;;;5015716;28;20555;-75
2021/06/15 04:50:47;;;;;;;6.03;3.33;;;;;;;;;;4995014;28;20038;-76
2021/06/15 04:53:12;;;;;;;6.32;3.63;;;;;;;;;;4996052;28;20088;-75
2021/06/15 04:55:38;;;;;;;5.30;3.60;;;;;;;;;;4995669;28;20492;-75
2021/06/15 04:58:06;;;;;;;5.80;3.25;;;;;;;;;;5016993;28;20080;-75
2021/06/15 05:00:31;;;;;;;5.30;3.42;;;;;;;;;;5014427;28;20041;-77
2021/06/15 05:02:57;;;;;;;7.45;3.90;;;;;;;;;;5013673;28;20041;-76
2021/06/15 05:05:22;;;;;;;9.40;4.00;;;;;;;;;;5012841;28;20107;-76
2021/06/15 05:08:08;;;;;;;3.70;3.25;;;;;;;;;;5012271;28;20753;-76
2021/06/15 05:10:40;;;;;;;6.32;3.33;;;;;;;;;;5176531;27;123393;-77
2021/06/15 05:13:09;;;;;;;8.60;4.15;;;;;;;;;;5123960;27;20443;-77
2021/06/15 05:15:35;;;;;;;7.13;3.55;;;;;;;;;;5093158;28;20023;-76
2021/06/15 05:18:00;;;;;;;6.35;3.95;;;;;;;;;;5076998;28;20042;-77
2021/06/15 05:20:25;;;;;;;5.43;3.60;;;;;;;;;;5075262;28;20377;-76
2021/06/15 05:23:14;;;;;;;7.32;3.90;;;;;;;;;;5088507;28;20035;-77
2021/06/15 05:25:41;;;;;;;5.20;3.20;;;;;;;;;;5080484;28;20023;-77
2021/06/15 05:28:06;;;;;;;7.90;3.63;;;;;;;;;;5109318;28;20039;-77
2021/06/15 05:30:32;;;;;;;5.70;3.30;;;;;;;;;;5109650;28;20637;-78
2021/06/15 05:32:57;;;;;;;6.55;3.15;;;;;;;;;;5109479;28;20560;-77
2021/06/15 05:35:23;;;;;;;6.25;3.47;;;;;;;;;;5092991;28;20379;-77
2021/06/15 05:37:49;;;;;;;5.57;4.00;;;;;;;;;;5105982;28;20027;-76
2021/06/15 05:40:14;;;;;;;6.95;3.38;;;;;;;;;;5073998;28;20043;-77
2021/06/15 05:42:40;;;;;;;7.70;3.55;;;;;;;;;;5090602;28;20035;-77
2021/06/15 05:45:07;;;;;;;7.88;4.50;;;;;;;;;;5107202;28;20039;-76
2021/06/15 05:47:33;;;;;;;10.75;6.32;;;;;;;;;;5080968;28;20720;-77
2021/06/15 05:49:58;;;;;;;12.38;8.48;;;;;;;;;;5110225;28;20034;-77
2021/06/15 05:52:24;;;;;;;16.70;8.48;;;;;;;;;;5110805;28;20481;-76
2021/06/15 05:54:49;;;;;;;14.50;9.80;;;;;;;;;;5093868;28;20488;-77
2021/06/15 05:57:15;;;;;;;15.27;12.00;;;;;;;;;;5093113;27;20059;-77
2021/06/15 05:59:40;;;;;;;15.40;12.68;;;;;;;;;;5092308;28;20028;-77
2021/06/15 06:02:06;;;;;;;13.73;11.27;;;;;;;;;;5092085;28;20024;-77
2021/06/15 06:04:36;;;;;;;17.17;12.20;;;;;;;;;;5093392;28;20119;-77
2021/06/15 06:09:46;;;;;;;14.40;11.82;;;;;;;;;;5113238;28;20031;-77
2021/06/15 06:12:12;;;;;;;15.50;11.48;;;;;;;;;;5110407;27;20031;-77
2021/06/15 06:14:37;;;;;;;14.15;11.85;;;;;;;;;;5108329;28;20032;-77
2021/06/15 06:17:03;;;;;;;13.68;11.10;;;;;;;;;;5110490;28;20036;-77
2021/06/15 06:19:29;;;;;;;14.18;10.98;;;;;;;;;;5110492;28;20046;-77
2021/06/15 06:21:54;;;;;;;15.00;11.68;;;;;;;;;;5096799;28;20474;-76
2021/06/15 06:24:20;;;;;;;13.27;10.23;;;;;;;;;;5095433;28;20039;-77
2021/06/15 06:26:51;;;;;;;17.10;11.90;;;;;;;;;;5094809;28;20100;-77
2021/06/15 06:29:18;;;;;;;15.27;10.18;;;;;;;;;;5078531;28;20023;-76
2021/06/15 06:31:43;;;;;;;14.82;12.70;;;;;;;;;;5113182;28;20042;-75
2021/06/15 06:34:09;;;;;;;14.80;11.25;;;;;;;;;;5079586;28;20039;-75
2021/06/15 06:36:34;;;;;;;16.98;11.88;;;;;;;;;;5079894;28;20050;-75
2021/06/15 06:39:00;;;;;;;16.15;12.32;;;;;;;;;;5075654;28;20111;-75
2021/06/15 06:41:27;;;;;;;17.80;14.32;;;;;;;;;;5079363;28;20032;-75
2021/06/15 06:43:53;;;;;;;17.42;13.63;;;;;;;;;;5096211;28;20032;-75
2021/06/15 06:46:18;;;;;;;17.17;12.95;;;;;;;;;;5096498;28;20111;-75
2021/06/15 06:48:46;;;;;;;15.40;13.07;;;;;;;;;;5096284;28;20020;-75
2021/06/15 06:51:11;;;;;;;17.80;15.88;;;;;;;;;;5091103;28;20036;-75
2021/06/15 06:53:37;;;;;;;20.88;15.68;;;;;;;;;;5068913;28;20109;-76
2021/06/15 06:56:04;;;;;;;15.82;13.82;;;;;;;;;;5075869;28;20040;-75
2021/06/15 06:58:30;;;;;;;22.23;15.32;;;;;;;;;;5089087;27;20035;-75
2021/06/15 07:00:55;;;;;;;22.70;17.52;;;;;;;;;;5096794;27;20389;-76
2021/06/15 07:03:21;;;;;;;25.40;15.70;;;;;;;;;;5065006;28;20036;-76
2021/06/15 07:05:46;;;;;;;20.38;15.95;;;;;;;;;;5078933;28;20101;-77
2021/06/15 07:08:12;;;;;;;17.25;13.30;;;;;;;;;;5071849;28;20024;-79
2021/06/15 07:10:37;;;;;;;19.80;12.55;;;;;;;;;;5076943;28;20028;-76
2021/06/15 07:13:03;;;;;;;17.67;13.27;;;;;;;;;;5111581;28;20072;-75
2021/06/15 07:15:29;;;;;;;19.27;13.60;;;;;;;;;;5095055;28;20102;-76
2021/06/15 07:17:54;;;;;;;20.85;12.23;;;;;;;;;;5062002;28;20205;-77
2021/06/15 07:20:20;;;;;;;17.48;11.90;;;;;;;;;;5078673;28;20506;-78
2021/06/15 07:22:45;;;;;;;20.65;14.43;;;;;;;;;;5077998;28;20473;-78
2021/06/15 07:25:12;;;;;;;21.38;13.90;;;;;;;;;;5078337;28;20028;-78
2021/06/15 07:27:37;;;;;;;20.30;13.68;;;;;;;;;;5094946;28;20042;-77
2021/06/15 07:30:04;;;;;;;18.42;12.88;;;;;;;;;;5077850;28;20404;-76
2021/06/15 07:32:30;;;;;;;20.00;14.45;;;;;;;;;;5093657;28;20038;-77
2021/06/15 07:34:55;;;;;;;23.25;16.05;;;;;;;;;;5094990;28;20040;-75
2021/06/15 07:37:21;;;;;;;22.05;15.50;;;;;;;;;;5076759;28;20020;-76
2021/06/15 07:39:47;;;;;;;23.10;16.60;;;;;;;;;;5093566;28;20032;-76
2021/06/15 07:42:13;;;;;;;21.17;16.60;;;;;;;;;;5095113;28;20389;-76
2021/06/15 07:44:39;;;;;;;21.40;17.67;;;;;;;;;;5077727;28;20035;-77
2021/06/15 07:47:04;;;;;;;21.27;17.38;;;;;;;;;;5095104;28;20512;-76
2021/06/15 07:49:32;;;;;;;20.73;16.48;;;;;;;;;;5078443;28;20477;-75
2021/06/15 07:51:58;;;;;;;21.05;16.90;;;;;;;;;;5094683;28;20028;-76
2021/06/15 07:54:23;;;;;;;20.10;16.23;;;;;;;;;;5094836;28;20063;-76
2021/06/15 07:56:49;;;;;;;20.90;15.65;;;;;;;;;;5104633;28;20110;-76
2021/06/15 07:59:14;;;;;;;17.10;15.25;;;;;;;;;;5098635;28;20032;-76
2021/06/15 08:01:39;;;;;;;20.85;16.13;;;;;;;;;;5063701;27;20027;-78
2021/06/15 08:04:06;;;;;;;22.00;14.20;;;;;;;;;;5089358;28;20058;-78
2021/06/15 08:06:34;;;;;;;18.80;13.93;;;;;;;;;;5094826;28;20485;-76
2021/06/15 08:08:59;;;;;;;18.02;14.02;;;;;;;;;;5078065;28;20039;-76
2021/06/15 08:11:25;;;;;;;23.15;15.60;;;;;;;;;;5078048;28;20428;-77
2021/06/15 08:13:50;;;;;;;26.67;17.02;;;;;;;;;;5077052;28;20401;-77
2021/06/15 08:16:16;;;;;;;22.00;16.33;;;;;;;;;;5093918;28;20054;-75
2021/06/15 08:18:41;;;;;;;21.67;14.32;;;;;;;;;;5094050;28;20081;-76
2021/06/15 08:21:07;;;;;;;19.85;14.85;;;;;;;;;;5094513;28;20031;-76
2021/06/15 08:23:32;;;;;;;21.88;15.85;;;;;;;;;;5077591;28;20042;-76
2021/06/15 08:25:58;;;;;;;23.27;15.73;;;;;;;;;;5077676;28;20066;-76
2021/06/15 08:28:24;;;;;;;24.40;14.52;;;;;;;;;;5093872;28;20027;-76
2021/06/15 08:30:51;;;;;;;30.55;14.25;;;;;;;;;;5094021;28;20435;-75
2021/06/15 08:33:17;;;;;;;22.98;14.88;;;;;;;;;;5094357;28;20038;-75
2021/06/15 08:35:42;;;;;;;21.50;15.80;;;;;;;;;;5094508;28;20035;-76
2021/06/15 08:38:08;;;;;;;25.00;15.27;;;;;;;;;;5077352;28;20032;-76
2021/06/15 08:40:34;;;;;;;20.30;14.07;;;;;;;;;;5093537;28;20032;-77
2021/06/15 08:43:00;;;;;;;17.73;14.13;;;;;;;;;;5076327;28;20035;-75
2021/06/15 08:45:26;;;;;;;21.35;15.20;;;;;;;;;;5077157;28;20548;-75
2021/06/15 08:47:52;;;;;;;18.23;12.07;;;;;;;;;;5077106;28;20111;-76
2021/06/15 08:50:19;;;;;;;20.50;13.85;;;;;;;;;;5077337;28;20465;-76
2021/06/15 08:52:45;;;;;;;21.67;16.85;;;;;;;;;;5094538;28;20031;-76
2021/06/15 08:55:12;;;;;;;19.27;13.80;;;;;;;;;;5082402;28;20446;-75
2021/06/15 08:57:37;;;;;;;21.58;13.90;;;;;;;;;;5065055;28;20031;-75
2021/06/15 09:00:04;;;;;;;20.30;14.80;;;;;;;;;;5108586;28;20035;-75
2021/06/15 09:02:30;;;;;;;27.00;18.23;;;;;;;;;;5093375;28;20071;-75
2021/06/15 09:04:55;;;;;;;19.65;15.82;;;;;;;;;;5077132;28;20055;-75
2021/06/15 09:07:21;;;;;;;18.77;16.75;;;;;;;;;;5110799;28;20061;-75
2021/06/15 09:09:48;;;;;;;14.98;10.82;;;;;;;;;;5093225;28;20039;-75
2021/06/15 09:12:17;;;;;;;16.73;13.18;;;;;;;;;;5093914;28;20027;-75
2021/06/15 09:14:53;;;;;;;28.02;18.58;;;;;;;;;;5076873;28;20114;-75
2021/06/15 09:17:28;;;;;;;17.15;10.65;;;;;;;;;;5094591;28;20032;-75
2021/06/15 09:19:58;;;;;;;14.13;9.60;;;;;;;;;;5111789;28;20039;-75
2021/06/15 09:22:32;;;;;;;12.80;9.20;;;;;;;;;;5073483;28;20389;-75
2021/06/15 09:24:58;;;;;;;17.67;12.40;;;;;;;;;;5074816;28;20382;-75
2021/06/15 09:27:36;;;;;;;15.73;10.90;;;;;;;;;;5076631;28;20032;-75
2021/06/15 09:30:06;;;;;;;17.73;12.82;;;;;;;;;;5093142;28;20036;-75
2021/06/15 09:32:38;;;;;;;15.07;10.65;;;;;;;;;;5076571;28;20038;-75
2021/06/15 09:35:12;;;;;;;14.20;11.38;;;;;;;;;;5073316;28;20036;-75
2021/06/15 09:37:44;;;;;;;12.90;9.45;;;;;;;;;;5090079;28;20393;-75
2021/06/15 09:40:13;;;;;;;16.23;10.77;;;;;;;;;;5090277;28;20047;-75
2021/06/15 09:42:54;;;;;;;18.15;12.32;;;;;;;;;;5091383;28;20062;-75
2021/06/15 09:45:49;;;;;;;16.88;12.77;;;;;;;;;;5106310;28;20164;-75
2021/06/15 09:48:24;;;;;;;17.13;11.18;;;;;;;;;;5077773;28;20075;-75
2021/06/15 09:50:52;;;;;;;15.13;9.90;;;;;;;;;;5110934;28;20027;-75
2021/06/15 09:53:37;;;;;;;16.13;9.40;;;;;;;;;;5076632;28;20478;-75
2021/06/15 09:56:04;;;;;;;14.13;8.73;;;;;;;;;;5058189;28;20080;-75
2021/06/15 09:58:59;;;;;;;11.80;8.77;;;;;;;;;;5093549;28;20420;-75
2021/06/15 10:01:38;;;;;;;12.07;9.10;;;;;;;;;;5080377;28;20033;-75
2021/06/15 10:04:22;;;;;;;10.82;7.70;;;;;;;;;;5113445;28;20736;-75
2021/06/15 10:06:52;;;;;;;12.57;7.15;;;;;;;;;;5098446;28;20031;-75
2021/06/15 10:09:29;;;;;;;8.27;5.78;;;;;;;;;;5113294;28;20050;-75
2021/06/15 10:11:56;;;;;;;8.07;6.07;;;;;;;;;;5097075;28;20035;-75
2021/06/15 10:14:22;;;;;;;9.75;6.53;;;;;;;;;;5080128;28;20035;-75
2021/06/15 10:16:49;;;;;;;9.60;7.25;;;;;;;;;;5101462;28;20016;-75
2021/06/15 10:19:15;;;;;;;10.15;7.63;;;;;;;;;;5090419;28;20028;-75
2021/06/15 10:21:40;;;;;;;9.50;7.47;;;;;;;;;;5079690;28;20366;-75
2021/06/15 10:24:07;;;;;;;12.43;7.45;;;;;;;;;;5096086;28;20055;-75
2021/06/15 10:26:33;;;;;;;7.80;5.70;;;;;;;;;;5076581;28;20024;-75
2021/06/15 10:28:59;;;;;;;10.45;6.53;;;;;;;;;;5059542;28;20027;-75
2021/06/15 10:31:29;;;;;;;10.20;6.90;;;;;;;;;;5075912;28;20024;-75
2021/06/15 10:33:54;;;;;;;8.65;5.05;;;;;;;;;;5076710;28;20071;-75
2021/06/15 10:36:45;;;;;;;8.23;5.63;;;;;;;;;;5079495;28;20063;-75
2021/06/15 10:39:17;;;;;;;9.23;5.95;;;;;;;;;;5080968;28;20127;-76
2021/06/15 10:41:43;;;;;;;5.90;4.30;;;;;;;;;;5079708;28;20106;-75
2021/06/15 10:44:09;;;;;;;7.03;4.30;;;;;;;;;;5095912;28;20398;-75
2021/06/15 10:46:39;;;;;;;8.90;5.00;;;;;;;;;;5096412;28;20763;-75
2021/06/15 10:49:16;;;;;;;7.32;4.57;;;;;;;;;;5079353;28;20028;-75
2021/06/15 10:51:51;;;;;;;6.93;4.00;;;;;;;;;;5112943;28;20027;-75
2021/06/15 10:54:40;;;;;;;8.48;4.30;;;;;;;;;;5113099;28;20132;-75
2021/06/15 10:57:23;;;;;;;6.03;3.90;;;;;;;;;;5122418;27;20512;-75
2021/06/15 11:00:09;;;;;;;5.47;3.45;;;;;;;;;;5101274;27;20468;-75
2021/06/15 11:02:35;;;;;;;10.82;4.43;;;;;;;;;;5100363;27;20556;-75
2021/06/15 11:05:36;;;;;;;5.20;3.67;;;;;;;;;;5107790;28;20031;-76
2021/06/15 11:08:23;;;;;;;6.95;3.40;;;;;;;;;;5097877;28;20020;-75
2021/06/15 11:10:57;;;;;;;6.85;3.65;;;;;;;;;;5109248;28;20043;-75
2021/06/15 11:13:48;;;;;;;8.52;3.97;;;;;;;;;;5079724;28;20024;-75
2021/06/15 11:16:22;;;;;;;6.57;3.88;;;;;;;;;;5104240;28;20031;-75
2021/06/15 11:19:10;;;;;;;10.18;3.45;;;;;;;;;;5078841;28;20481;-75
2021/06/15 11:22:01;;;;;;;6.50;4.00;;;;;;;;;;5113737;28;20545;-76
2021/06/15 11:24:36;;;;;;;6.45;3.15;;;;;;;;;;5092208;28;20024;-75
2021/06/15 11:27:24;;;;;;;6.53;3.15;;;;;;;;;;5093100;28;20459;-75
2021/06/15 11:30:10;;;;;;;6.95;3.08;;;;;;;;;;5092798;28;20520;-75
2021/06/15 11:32:36;;;;;;;6.55;3.35;;;;;;;;;;5101471;28;20077;-76
2021/06/15 11:35:02;;;;;;;5.88;3.55;;;;;;;;;;5111631;28;20045;-75
2021/06/15 11:37:33;;;;;;;5.85;3.28;;;;;;;;;;5113469;28;20031;-75
2021/06/15 11:40:19;;;;;;;6.68;3.63;;;;;;;;;;5095958;28;20032;-75
2021/06/15 11:42:52;;;;;;;6.68;3.47;;;;;;;;;;5111442;28;20028;-75
2021/06/15 11:45:18;;;;;;;6.80;3.05;;;;;;;;;;5095973;28;20031;-76
2021/06/15 11:47:55;;;;;;;3.60;2.90;;;;;;;;;;5113155;28;20096;-76
2021/06/15 11:50:33;;;;;;;5.10;3.10;;;;;;;;;;5080010;28;20024;-76
2021/06/15 11:53:10;;;;;;;7.88;3.40;;;;;;;;;;5078093;28;20035;-76
2021/06/15 11:55:46;;;;;;;4.57;3.33;;;;;;;;;;5113108;27;20039;-76
2021/06/15 11:58:15;;;;;;;5.60;3.15;;;;;;;;;;5096331;27;20041;-76
2021/06/15 12:01:06;;;;;;;4.43;2.78;;;;;;;;;;5067708;28;20039;-75
2021/06/15 12:03:42;;;;;;;4.82;2.65;;;;;;;;;;5098570;28;20105;-76
2021/06/15 12:06:08;;;;;;;5.88;3.00;;;;;;;;;;5092926;27;20027;-75
2021/06/15 12:08:36;;;;;;;3.95;2.50;;;;;;;;;;5098132;27;20103;-76
2021/06/15 12:11:02;;;;;;;5.20;2.40;;;;;;;;;;5098409;27;20076;-76
2021/06/15 12:13:32;;;;;;;3.85;2.47;;;;;;;;;;5114530;27;20023;-76
2021/06/15 12:16:01;;;;;;;4.45;2.03;;;;;;;;;;5106356;28;20035;-76
2021/06/15 12:18:27;;;;;;;4.00;2.13;;;;;;;;;;5091941;28;20505;-76
2021/06/15 12:20:55;;;;;;;5.72;2.17;;;;;;;;;;5091127;28;20028;-76
2021/06/15 12:23:48;;;;;;;5.72;3.05;;;;;;;;;;5091153;28;20095;-76
2021/06/15 12:26:25;;;;;;;4.28;2.00;;;;;;;;;;5057569;28;20024;-76
2021/06/15 12:28:54;;;;;;;4.28;2.28;;;;;;;;;;5074288;28;20036;-75
2021/06/15 12:31:24;;;;;;;4.03;2.10;;;;;;;;;;5085465;28;20057;-76
2021/06/15 12:33:57;;;;;;;3.40;2.10;;;;;;;;;;5110846;28;20554;-76
2021/06/15 12:36:30;;;;;;;6.07;2.00;;;;;;;;;;5078108;28;20023;-76
2021/06/15 12:39:07;;;;;;;2.58;1.63;;;;;;;;;;5110965;28;20082;-76
2021/06/15 12:41:33;;;;;;;3.70;2.00;;;;;;;;;;5110848;28;20028;-75
2021/06/15 12:44:00;;;;;;;3.40;2.15;;;;;;;;;;5077448;28;20435;-76
2021/06/15 12:46:30;;;;;;;3.22;2.03;;;;;;;;;;5094293;28;20035;-76
2021/06/15 12:49:19;;;;;;;3.33;1.58;;;;;;;;;;5076859;28;20024;-76
2021/06/15 12:51:55;;;;;;;4.75;2.17;;;;;;;;;;5102856;28;20036;-76
2021/06/15 12:54:22;;;;;;;3.75;1.70;;;;;;;;;;5118641;27;20069;-76
2021/06/15 12:57:04;;;;;;;2.88;1.98;;;;;;;;;;5131930;27;20023;-76
2021/06/15 12:59:30;;;;;;;2.10;1.40;;;;;;;;;;5106081;28;20035;-75
2021/06/15 13:01:56;;;;;;;3.88;1.50;;;;;;;;;;5084137;28;20032;-76
2021/06/15 13:04:26;;;;;;;4.20;1.75;;;;;;;;;;5057943;28;20084;-76
2021/06/15 13:06:53;;;;;;;3.25;2.05;;;;;;;;;;5093058;28;20040;-76
2021/06/15 13:09:20;;;;;;;4.45;1.73;;;;;;;;;;5093760;28;20115;-76
2021/06/15 13:12:04;;;;;;;3.42;1.98;;;;;;;;;;5093845;28;20031;-76
2021/06/15 13:14:37;;;;;;;3.65;1.80;;;;;;;;;;5072728;28;20032;-76
2021/06/15 13:17:07;;;;;;;2.65;1.27;;;;;;;;;;5087132;28;20427;-75
2021/06/15 13:19:36;;;;;;;2.83;1.67;;;;;;;;;;5110788;28;20534;-75
2021/06/15 13:22:02;;;;;;;4.28;1.90;;;;;;;;;;5077265;28;20393;-76
2021/06/15 13:24:36;;;;;;;2.22;1.38;;;;;;;;;;5094222;28;20035;-75
2021/06/15 13:27:22;;;;;;;4.00;1.52;;;;;;;;;;5093679;28;20040;-76
2021/06/15 13:29:47;;;;;;;3.83;1.63;;;;;;;;;;5093900;28;20071;-76
2021/06/15 13:32:15;;;;;;;3.15;1.30;;;;;;;;;;5097327;28;20028;-75
2021/06/15 13:35:02;;;;;;;4.03;1.77;;;;;;;;;;5080816;28;20039;-76
2021/06/15 13:37:28;;;;;;;3.20;1.83;;;;;;;;;;5082205;28;20027;-75
2021/06/15 13:39:53;;;;;;;3.15;1.38;;;;;;;;;;5079240;28;20189;-76
2021/06/15 13:42:26;;;;;;;4.35;2.25;;;;;;;;;;5080268;28;20031;-76
2021/06/15 13:45:04;;;;;;;6.47;1.88;;;;;;;;;;5079049;28;20035;-76
2021/06/15 13:47:29;;;;;;;6.50;1.73;;;;;;;;;;5094465;28;20028;-76
2021/06/15 13:49:55;;;;;;;6.38;2.47;;;;;;;;;;5080333;28;20362;-76
2021/06/15 13:52:20;;;;;;;2.88;1.40;;;;;;;;;;5081063;28;20110;-76
2021/06/15 13:54:46;;;;;;;3.92;1.70;;;;;;;;;;5077395;28;20028;-75
2021/06/15 13:57:11;;;;;;;6.25;1.45;;;;;;;;;;5043574;28;20028;-76
2021/06/15 13:59:37;;;;;;;3.42;1.13;;;;;;;;;;5060654;28;20032;-76
2021/06/15 14:02:02;;;;;;;4.05;1.50;;;;;;;;;;5076831;28;20050;-75
2021/06/15 14:04:28;;;;;;;5.03;1.60;;;;;;;;;;5076691;28;20054;-76
2021/06/15 14:06:53;;;;;;;4.50;1.65;;;;;;;;;;5060330;28;20043;-76
2021/06/15 14:09:19;;;;;;;2.55;1.40;;;;;;;;;;5059975;28;20382;-75
2021/06/15 14:11:44;;;;;;;5.25;1.60;;;;;;;;;;5086414;28;20024;-76
2021/06/15 14:14:10;;;;;;;5.45;1.30;;;;;;;;;;5096908;28;20063;-75
2021/06/15 14:16:35;;;;;;;2.00;1.30;;;;;;;;;;5059690;28;20021;-75
2021/06/15 14:19:01;;;;;;;2.92;1.35;;;;;;;;;;5064680;28;20085;-75
2021/06/15 14:21:26;;;;;;;3.83;1.52;;;;;;;;;;5096862;28;20044;-76
2021/06/15 14:23:52;;;;;;;5.18;1.92;;;;;;;;;;5092388;28;20046;-75
2021/06/15 14:26:17;;;;;;;3.38;1.25;;;;;;;;;;5096625;28;20031;-76
2021/06/15 14:28:43;;;;;;;5.35;1.40;;;;;;;;;;5079001;28;20040;-76
2021/06/15 14:31:08;;;;;;;2.65;1.30;;;;;;;;;;5076251;28;20051;-75
2021/06/15 14:33:35;;;;;;;6.20;1.70;;;;;;;;;;5059499;28;20034;-76
2021/06/15 14:36:01;;;;;;;4.63;1.60;;;;;;;;;;5077061;28;20040;-76
2021/06/15 14:38:26;;;;;;;2.83;1.48;;;;;;;;;;5059966;28;20439;-76
2021/06/15 14:40:52;;;;;;;3.97;1.30;;;;;;;;;;5079852;28;20042;-75
2021/06/15 14:43:18;;;;;;;2.95;1.30;;;;;;;;;;5078203;28;20442;-76
2021/06/15 14:45:43;;;;;;;4.68;1.52;;;;;;;;;;5079293;28;20043;-76
2021/06/15 14:48:09;;;;;;;2.72;1.17;;;;;;;;;;5095381;28;20326;-76
2021/06/15 14:50:35;;;;;;;4.60;1.40;;;;;;;;;;5095983;28;20068;-76
2021/06/15 14:53:01;;;;;;;4.63;3.40;;;;;;;;;;5096604;28;20031;-76